Time;durP1;ratioP1;P1;durP2;ratioP2;P2;SDS_P1;SDS_P2;PMS_P1;PMS_P2;Temp;Humidity;BMP_temperature;BMP_pressure;BME280_temperature;BME280_humidity;BME280_pressure;Samples;Min_cycle;Max_cycle;Signal;HPM_P1;HPM_P2
2023/08/23 00:00:26;;;;;;;;;;;;;;;25.88;56.19;93671.16;5057304;28;19936;-91
2023/08/23 00:02:51;;;;;;;;;;;;;;;25.87;56.15;93669.69;5105129;27;20339;-91
2023/08/23 00:05:17;;;;;;;;;;;;;;;25.87;56.18;93669.69;5070915;28;19928;-91
2023/08/23 00:07:42;;;;;;;;;;;;;;;25.88;56.07;93665.63;5065680;28;20007;-91
2023/08/23 00:10:08;;;;;;;;;;;;;;;25.88;56.14;93662.13;5066742;28;20023;-91
2023/08/23 00:12:33;;;;;;;;;;;;;;;25.87;56.16;93668.94;5084662;28;19916;-91
2023/08/23 00:14:58;;;;;;;;;;;;;;;25.86;56.38;93673.75;5079811;28;20022;-91
2023/08/23 00:17:24;;;;;;;;;;;;;;;25.86;56.15;93665.44;5082436;28;19933;-91
2023/08/23 00:19:49;;;;;;;;;;;;;;;25.86;56.39;93661.94;5069166;28;20420;-91
2023/08/23 00:22:14;;;;;;;;;;;;;;;25.85;56.34;93666.72;5056433;28;19920;-91
2023/08/23 00:24:39;;;;;;;;;;;;;;;25.86;56.07;93673.75;5054718;28;19971;-90
2023/08/23 00:27:05;;;;;;;;;;;;;;;25.85;56.42;93663.22;5053061;28;19929;-91
2023/08/23 00:29:30;;;;;;;;;;;;;;;25.84;56.18;93665.25;5050307;28;20831;-91
2023/08/23 00:31:55;;;;;;;;;;;;;;;25.84;56.22;93665.25;5100334;28;20439;-91
2023/08/23 00:34:20;;;;;;;;;;;;;;;25.84;56.29;93676.34;5088472;28;19923;-91
2023/08/23 00:36:46;;;;;;;;;;;;;;;25.84;56.41;93667.28;5066062;28;19931;-90
2023/08/23 00:39:12;;;;;;;;;;;;;;;25.83;56.46;93668.56;5055364;28;20003;-91
2023/08/23 00:41:37;;;;;;;;;;;;;;;25.82;56.24;93664.34;5068393;28;19978;-91
2023/08/23 00:44:03;;;;;;;;;;;;;;;25.82;56.24;93662.31;5079164;28;19960;-90
2023/08/23 00:46:28;;;;;;;;;;;;;;;25.81;56.29;93669.13;5052405;28;19974;-90
2023/08/23 00:48:53;;;;;;;;;;;;;;;25.82;56.16;93670.59;5053620;28;19920;-91
2023/08/23 00:51:21;;;;;;;;;;;;;;;25.82;56.67;93661.56;5100250;27;19923;-90
2023/08/23 00:53:46;;;;;;;;;;;;;;;25.82;56.49;93669.88;5106344;28;19924;-90
2023/08/23 00:56:11;;;;;;;;;;;;;;;25.81;56.34;93668.38;5090145;28;20441;-91
2023/08/23 00:58:37;;;;;;;;;;;;;;;25.80;56.33;93664.13;5061215;28;20015;-91
2023/08/23 01:01:02;;;;;;;;;;;;;;;25.79;56.42;93663.41;5050351;28;19959;-90
2023/08/23 01:03:28;;;;;;;;;;;;;;;25.80;56.29;93675.22;5091537;27;19920;-90
2023/08/23 01:06:03;;;;;;;;;;;;;;;25.79;56.44;93668.94;5057688;28;20148;-91
2023/08/23 01:08:38;;;;;;;;;;;;;;;25.79;56.48;93674.47;5085762;28;19920;-89
2023/08/23 01:11:22;;;;;;;;;;;;;;;25.78;56.39;93672.25;5059778;28;20250;-90
2023/08/23 01:13:57;;;;;;;;;;;;;;;25.77;56.44;93663.22;5095097;28;19927;-90
2023/08/23 01:16:23;;;;;;;;;;;;;;;25.77;56.40;93677.06;5054942;28;19928;-89
2023/08/23 01:18:48;;;;;;;;;;;;;;;25.77;56.79;93668.75;5077628;28;19996;-90
2023/08/23 01:21:14;;;;;;;;;;;;;;;25.77;56.65;93679.09;5053838;28;19924;-90
2023/08/23 01:23:41;;;;;;;;;;;;;;;25.76;56.53;93672.09;5060323;28;20409;-90
2023/08/23 01:26:07;;;;;;;;;;;;;;;25.77;56.40;93670.78;5060805;28;19920;-91
2023/08/23 01:28:33;;;;;;;;;;;;;;;25.75;56.64;93678.94;5071937;28;19977;-90
2023/08/23 01:30:59;;;;;;;;;;;;;;;25.76;56.74;93678.38;5065623;28;20367;-91
2023/08/23 01:33:33;;;;;;;;;;;;;;;25.75;56.53;93667.84;5061032;28;20003;-90
2023/08/23 01:36:04;;;;;;;;;;;;;;;25.74;56.75;93675.41;5040696;28;19947;-91
2023/08/23 01:38:29;;;;;;;;;;;;;;;25.75;56.54;93681.69;5082515;28;19923;-91
2023/08/23 01:40:55;;;;;;;;;;;;;;;25.74;56.71;93672.66;5088221;28;20378;-89
2023/08/23 01:43:20;;;;;;;;;;;;;;;25.74;56.59;93672.66;5084772;28;20022;-89
2023/08/23 01:45:47;;;;;;;;;;;;;;;25.72;56.60;93666.94;5075236;28;20444;-90
2023/08/23 01:48:12;;;;;;;;;;;;;;;25.73;56.52;93665.63;5071996;28;19947;-91
2023/08/23 01:50:37;;;;;;;;;;;;;;;25.73;56.52;93664.91;5060163;28;19943;-89
2023/08/23 01:53:03;;;;;;;;;;;;;;;25.73;56.72;93656.59;5059433;28;19954;-90
2023/08/23 01:55:28;;;;;;;;;;;;;;;25.72;56.56;93663.41;5068211;28;19925;-90
2023/08/23 01:57:53;;;;;;;;;;;;;;;25.72;56.54;93653.09;5076272;28;19924;-90
2023/08/23 02:00:18;;;;;;;;;;;;;;;25.72;56.37;93646.81;5071478;28;19924;-91
2023/08/23 02:02:45;;;;;;;;;;;;;;;25.72;56.53;93646.81;5077145;28;19973;-89
2023/08/23 02:05:10;;;;;;;;;;;;;;;25.71;56.51;93656.41;5101836;28;19927;-90
2023/08/23 02:07:35;;;;;;;;;;;;;;;25.70;56.57;93661.19;5055054;28;19921;-91
2023/08/23 02:10:01;;;;;;;;;;;;;;;25.71;56.78;93654.38;5056667;28;19947;-90
2023/08/23 02:12:26;;;;;;;;;;;;;;;25.70;56.66;93650.13;5074349;28;19959;-90
2023/08/23 02:14:51;;;;;;;;;;;;;;;25.71;56.72;93651.59;5082676;28;19928;-90
2023/08/23 02:17:16;;;;;;;;;;;;;;;25.71;56.65;93650.88;5083982;27;19959;-90
2023/08/23 02:19:42;;;;;;;;;;;;;;;25.70;56.59;93635.53;5047147;28;20018;-90
2023/08/23 02:22:07;;;;;;;;;;;;;;;25.70;56.66;93643.84;5070957;28;19920;-90
2023/08/23 02:24:32;;;;;;;;;;;;;;;25.70;56.61;93652.16;5065665;28;19925;-90
2023/08/23 02:26:57;;;;;;;;;;;;;;;25.70;56.54;93641.81;5088015;28;20382;-90
2023/08/23 02:29:23;;;;;;;;;;;;;;;25.69;56.57;93636.84;5094045;27;20642;-91
2023/08/23 02:31:48;;;;;;;;;;;;;;;25.69;56.81;93640.34;5061952;28;19924;-90
2023/08/23 02:34:13;;;;;;;;;;;;;;;25.69;56.62;93631.28;5060946;28;19927;-90
2023/08/23 02:36:41;;;;;;;;;;;;;;;25.69;56.90;93637.56;5069151;28;20010;-90
2023/08/23 02:39:07;;;;;;;;;;;;;;;25.68;56.64;93627.78;5051541;28;19920;-91
2023/08/23 02:41:32;;;;;;;;;;;;;;;25.68;56.66;93638.88;5089182;28;19977;-90
2023/08/23 02:43:57;;;;;;;;;;;;;;;25.67;56.89;93642.91;5071499;28;19917;-90
2023/08/23 02:46:22;;;;;;;;;;;;;;;25.68;56.91;93627.06;5076253;28;19924;-89
2023/08/23 02:48:48;;;;;;;;;;;;;;;25.67;56.95;93628.34;5071285;28;19994;-91
2023/08/23 02:51:13;;;;;;;;;;;;;;;25.67;56.65;93625.56;5071446;28;19927;-91
2023/08/23 02:53:38;;;;;;;;;;;;;;;25.66;56.72;93633.13;5070997;28;20006;-91
2023/08/23 02:56:03;;;;;;;;;;;;;;;25.66;56.75;93630.38;5053099;28;20396;-90
2023/08/23 02:58:29;;;;;;;;;;;;;;;25.66;56.69;93635.91;5048571;28;19920;-90
2023/08/23 03:00:54;;;;;;;;;;;;;;;25.66;56.90;93643.47;5049002;28;19927;-90
2023/08/23 03:05:55;;;;;;;12.55;11.07;;;;;;;25.65;57.02;93644.75;5078271;27;20398;-92
2023/08/23 03:08:20;;;;;;;11.27;10.10;;;;;;;25.65;56.96;93642.72;5062238;28;20048;-91
2023/08/23 03:10:46;;;;;;;12.90;11.00;;;;;;;25.67;56.63;93650.50;5071969;28;20040;-91
2023/08/23 03:13:13;;;;;;;12.63;11.30;;;;;;;25.67;56.92;93642.19;5062349;28;20043;-91
2023/08/23 03:15:38;;;;;;;12.45;11.18;;;;;;;25.67;56.73;93648.47;5066113;28;20036;-91
2023/08/23 03:18:04;;;;;;;15.55;11.82;;;;;;;25.67;56.79;93654.00;5048735;28;20385;-91
2023/08/23 03:20:29;;;;;;;10.48;9.48;;;;;;;25.67;56.44;93659.53;5064213;28;20692;-91
2023/08/23 03:22:55;;;;;;;12.23;10.98;;;;;;;25.69;56.63;93675.59;5075558;28;20056;-91
2023/08/23 03:25:20;;;;;;;12.50;11.05;;;;;;;25.68;56.68;93674.84;5051574;28;20045;-91
2023/08/23 03:27:52;;;;;;;13.02;10.55;;;;;;;25.66;56.80;93662.84;5055842;28;20043;-91
2023/08/23 03:30:17;;;;;;;13.40;10.18;;;;;;;25.67;56.71;93676.16;5063338;28;20450;-90
2023/08/23 03:32:43;;;;;;;23.70;18.75;;;;;;;25.71;56.38;93695.16;5093036;28;20134;-92
2023/08/23 03:35:08;;;;;;;15.48;11.13;;;;;;;25.74;58.01;93694.81;5066564;28;20044;-90
2023/08/23 03:37:36;;;;;;;222.10;136.38;;;;;;;25.43;60.16;93691.22;5060424;28;20077;-93
2023/08/23 03:40:02;;;;;;;173.88;90.07;;;;;;;25.32;60.30;93686.03;5065960;28;20122;-90
2023/08/23 03:42:28;;;;;;;137.85;79.45;;;;;;;25.28;59.54;93697.47;5077146;28;20031;-89
2023/08/23 03:44:53;;;;;;;23.15;19.05;;;;;;;25.33;59.26;93695.81;5061496;28;20056;-90
2023/08/23 03:47:21;;;;;;;16.83;13.07;;;;;;;25.25;59.91;93683.97;5077522;28;20103;-91
2023/08/23 03:49:47;;;;;;;18.73;11.82;;;;;;;25.23;59.78;93679.00;5054384;28;20068;-89
2023/08/23 03:52:12;;;;;;;13.80;11.98;;;;;;;25.05;60.79;93663.47;5037389;28;20037;-91
2023/08/23 03:54:42;;;;;;;18.30;11.73;;;;;;;24.94;61.38;93660.97;5056192;28;20388;-93
2023/08/23 03:57:10;;;;;;;15.65;11.00;;;;;;;24.76;61.61;93659.25;5086366;28;20036;-93
2023/08/23 04:00:16;;;;;;;21.02;10.88;;;;;;;24.64;62.00;93666.41;5061061;28;20052;-91
2023/08/23 04:02:43;;;;;;;26.23;11.32;;;;;;;24.58;62.82;93661.03;5083401;28;20449;-90
2023/08/23 04:05:11;;;;;;;22.95;13.02;;;;;;;24.51;63.23;93656.19;5049646;28;20029;-89
2023/08/23 04:07:37;;;;;;;13.82;10.27;;;;;;;24.42;63.79;93648.44;5082204;28;20108;-90
2023/08/23 04:10:02;;;;;;;15.05;9.90;;;;;;;24.31;63.84;93648.72;5056862;28;20028;-90
2023/08/23 04:12:28;;;;;;;24.88;16.00;;;;;;;24.27;63.91;93655.34;5047061;28;20040;-91
2023/08/23 04:14:55;;;;;;;46.15;28.48;;;;;;;24.37;63.66;93668.66;5050120;28;20044;-92
2023/08/23 04:17:23;;;;;;;46.55;27.65;;;;;;;24.31;63.99;93671.56;5017361;28;20056;-90
2023/08/23 04:19:49;;;;;;;23.83;16.13;;;;;;;24.18;64.65;93677.91;5020025;28;20052;-89
2023/08/23 04:22:15;;;;;;;24.05;16.25;;;;;;;23.99;65.48;93671.91;5044430;28;20041;-91
2023/08/23 04:24:43;;;;;;;16.17;12.95;;;;;;;23.99;65.44;93679.44;5032700;28;20048;-92
2023/08/23 04:27:09;;;;;;;18.25;12.10;;;;;;;23.91;65.60;93674.59;5026945;28;20101;-92
2023/08/23 04:29:34;;;;;;;27.55;12.75;;;;;;;23.87;65.45;93681.72;5012604;28;20047;-92
2023/08/23 04:32:01;;;;;;;27.42;16.27;;;;;;;23.86;65.88;93686.50;5018967;28;20048;-91
2023/08/23 04:34:26;;;;;;;27.05;15.02;;;;;;;23.87;66.03;93690.75;5041332;28;20033;-92
2023/08/23 04:37:00;;;;;;;23.45;12.93;;;;;;;23.72;66.23;93711.97;5019691;28;20040;-92
2023/08/23 04:39:29;;;;;;;27.48;17.55;;;;;;;23.73;66.85;93705.19;4977900;28;20509;-93
2023/08/23 04:41:54;;;;;;;23.70;15.02;;;;;;;23.52;67.31;93710.69;4994751;28;20038;-93
2023/08/23 04:44:23;;;;;;;37.05;18.30;;;;;;;23.31;67.94;93712.66;4978835;28;20048;-92
2023/08/23 04:46:58;;;;;;;30.42;20.98;;;;;;;23.32;68.06;93714.16;4987050;28;20045;-91
2023/08/23 04:49:24;;;;;;;26.80;18.00;;;;;;;23.32;67.60;93719.66;5013761;28;20082;-90
2023/08/23 04:51:49;;;;;;;25.38;16.48;;;;;;;23.36;67.53;93715.31;5014923;28;20044;-92
2023/08/23 04:54:18;;;;;;;24.30;13.88;;;;;;;23.34;66.89;93717.84;4996981;28;20148;-91
2023/08/23 04:56:43;;;;;;;17.25;12.60;;;;;;;23.33;66.64;93718.38;5018505;28;20056;-92
2023/08/23 04:59:09;;;;;;;20.73;11.57;;;;;;;23.41;66.06;93706.13;5012972;28;20029;-91
2023/08/23 05:01:35;;;;;;;46.13;16.13;;;;;;;23.45;66.09;93709.31;4996984;28;20056;-90
2023/08/23 05:04:01;;;;;;;36.08;17.38;;;;;;;23.54;65.83;93708.16;5009693;28;20416;-92
2023/08/23 05:06:26;;;;;;;20.23;11.50;;;;;;;23.59;65.78;93710.03;5027702;28;20041;-92
2023/08/23 05:08:54;;;;;;;16.30;9.55;;;;;;;23.64;66.13;93714.66;5008104;28;20063;-89
2023/08/23 05:11:20;;;;;;;12.48;9.18;;;;;;;23.65;65.99;93712.66;4999472;28;20064;-91
2023/08/23 05:13:46;;;;;;;12.02;10.23;;;;;;;23.66;66.20;93712.09;4979255;28;20064;-90
2023/08/23 05:16:12;;;;;;;29.25;16.45;;;;;;;23.62;66.16;93705.44;4975213;28;20035;-92
2023/08/23 05:18:37;;;;;;;28.95;15.55;;;;;;;23.64;66.26;93702.88;4961717;28;20077;-90
2023/08/23 05:21:04;;;;;;;27.60;14.88;;;;;;;23.62;66.47;93692.38;4941556;28;20050;-90
2023/08/23 05:23:29;;;;;;;36.38;14.32;;;;;;;23.63;66.46;93687.59;4954013;28;20050;-91
2023/08/23 05:25:56;;;;;;;98.53;32.80;;;;;;;23.64;66.59;93680.81;4952850;28;20476;-90
2023/08/23 05:28:27;;;;;;;51.08;23.83;;;;;;;23.61;66.36;93681.88;4962116;28;20073;-92
2023/08/23 05:30:52;;;;;;;31.45;17.73;;;;;;;23.60;66.49;93689.41;4988860;28;20189;-92
2023/08/23 05:33:46;;;;;;;21.33;13.40;;;;;;;23.58;66.39;93684.47;5005827;28;20046;-93
2023/08/23 05:36:11;;;;;;;16.83;10.50;;;;;;;23.68;66.36;93689.50;4987357;28;20060;-91
2023/08/23 05:38:37;;;;;;;24.33;11.27;;;;;;;23.60;66.57;93692.19;5007683;28;20124;-91
2023/08/23 05:41:07;;;;;;;20.70;10.35;;;;;;;23.65;66.27;93696.81;4987522;28;20202;-93
2023/08/23 05:43:37;;;;;;;13.93;9.05;;;;;;;23.64;66.10;93694.59;4989961;28;20052;-94
2023/08/23 05:46:33;;;;;;;41.53;23.80;;;;;;;23.66;66.31;93689.28;4983477;28;20037;-94
2023/08/23 05:48:59;;;;;;;161.13;88.30;;;;;;;23.63;66.72;93701.41;4923065;29;20518;-92
2023/08/23 05:51:26;;;;;;;25.45;14.43;;;;;;;23.67;66.08;93699.06;4917591;28;20063;-91
2023/08/23 05:53:51;;;;;;;17.83;10.98;;;;;;;23.57;66.27;93702.28;4919568;29;20047;-92
2023/08/23 05:56:36;;;;;;;26.35;16.30;;;;;;;23.61;66.00;93706.72;4896751;28;20043;-94
2023/08/23 05:59:02;;;;;;;14.65;10.13;;;;;;;23.65;65.77;93716.16;4950144;28;20053;-91
2023/08/23 06:01:32;;;;;;;26.08;13.02;;;;;;;23.71;65.66;93704.97;4945007;28;20462;-93
2023/08/23 06:03:57;;;;;;;21.33;15.73;;;;;;;23.75;65.63;93702.63;4884755;29;20571;-88
2023/08/23 06:06:25;;;;;;;17.70;13.68;;;;;;;23.80;66.09;93696.22;4878895;29;20045;-89
2023/08/23 06:08:51;;;;;;;20.05;17.40;;;;;;;23.81;66.12;93695.69;4878385;29;20049;-89
2023/08/23 06:11:16;;;;;;;17.20;10.00;;;;;;;23.87;66.79;93706.59;4869794;29;20056;-87
2023/08/23 06:13:43;;;;;;;13.40;9.15;;;;;;;23.78;67.26;93705.06;4883467;29;20084;-90
2023/08/23 06:16:09;;;;;;;15.13;9.70;;;;;;;23.90;66.97;93714.53;4879185;29;20083;-91
2023/08/23 06:18:34;;;;;;;11.70;9.43;;;;;;;23.88;66.89;93708.81;4871829;29;20840;-89
2023/08/23 06:21:04;;;;;;;9.50;8.40;;;;;;;23.71;66.93;93716.03;4884516;29;20041;-91
2023/08/23 06:23:30;;;;;;;14.85;9.80;;;;;;;23.71;67.18;93719.53;4872826;29;20044;-93
2023/08/23 06:25:58;;;;;;;11.65;9.73;;;;;;;23.69;67.21;93727.59;4943537;28;20069;-91
2023/08/23 06:28:24;;;;;;;14.05;8.02;;;;;;;23.63;67.32;93723.47;4975046;28;20038;-91
2023/08/23 06:30:49;;;;;;;28.58;13.70;;;;;;;23.61;67.83;93724.00;4960722;28;20058;-90
2023/08/23 06:33:15;;;;;;;14.63;9.60;;;;;;;23.47;68.02;93730.84;4954657;28;20060;-92
2023/08/23 06:35:40;;;;;;;28.27;14.93;;;;;;;23.41;68.76;93738.50;4989052;28;20579;-91
2023/08/23 06:38:06;;;;;;;28.02;14.02;;;;;;;23.55;68.21;93734.47;4977637;28;20040;-92
2023/08/23 06:40:31;;;;;;;34.13;13.20;;;;;;;23.46;68.19;93735.63;5000471;28;20060;-92
2023/08/23 06:42:57;;;;;;;34.05;12.82;;;;;;;23.53;67.90;93739.78;5011515;28;20052;-91
2023/08/23 06:45:22;;;;;;;44.75;14.23;;;;;;;23.53;68.01;93742.53;5039023;28;20151;-91
2023/08/23 06:47:49;;;;;;;30.75;12.43;;;;;;;23.60;67.88;93730.81;5066825;28;20049;-89
2023/08/23 06:50:14;;;;;;;22.88;9.75;;;;;;;23.64;67.29;93733.25;5038038;28;20055;-89
2023/08/23 06:52:40;;;;;;;20.20;9.23;;;;;;;23.67;67.78;93743.22;5042304;28;20037;-92
2023/08/23 06:55:06;;;;;;;15.75;8.73;;;;;;;23.70;68.25;93739.38;5050849;28;20060;-91
2023/08/23 06:57:32;;;;;;;10.45;8.73;;;;;;;23.60;68.79;93752.91;5047857;28;20048;-92
2023/08/23 07:00:01;;;;;;;16.88;10.38;;;;;;;23.52;69.87;93752.09;5053336;28;20051;-93
2023/08/23 07:02:27;;;;;;;15.57;10.10;;;;;;;23.55;69.50;93757.28;5045151;28;20032;-93
2023/08/23 07:04:55;;;;;;;15.75;9.98;;;;;;;23.57;69.42;93760.25;5037427;28;20101;-92
2023/08/23 07:07:21;;;;;;;12.60;10.20;;;;;;;23.51;69.73;93770.63;5053917;28;20242;-89
2023/08/23 07:09:46;;;;;;;22.20;10.88;;;;;;;23.48;69.62;93776.47;5055228;28;20108;-90
2023/08/23 07:12:12;;;;;;;17.08;10.93;;;;;;;23.49;69.84;93769.69;5050268;28;20041;-90
2023/08/23 07:14:38;;;;;;;14.52;11.25;;;;;;;23.51;69.63;93778.19;5034684;28;20041;-90
2023/08/23 07:17:03;;;;;;;18.02;11.95;;;;;;;23.57;69.62;93767.78;5044663;28;20060;-92
2023/08/23 07:19:29;;;;;;;14.95;12.63;;;;;;;23.58;69.39;93772.78;5040518;28;20052;-93
2023/08/23 07:21:55;;;;;;;34.35;15.95;;;;;;;23.55;69.48;93770.34;5061120;28;20067;-93
2023/08/23 07:24:20;;;;;;;34.40;14.70;;;;;;;23.70;69.22;93764.22;5049890;28;20068;-92
2023/08/23 07:26:46;;;;;;;20.23;12.07;;;;;;;23.77;68.98;93764.31;5020486;28;20041;-90
2023/08/23 07:29:15;;;;;;;34.95;13.52;;;;;;;23.79;69.48;93766.53;5032455;28;20136;-91
2023/08/23 07:31:43;;;;;;;29.10;12.97;;;;;;;23.80;70.32;93768.75;5030994;28;20281;-91
2023/08/23 07:34:09;;;;;;;21.83;12.20;;;;;;;23.80;70.66;93762.50;5023974;28;20041;-92
2023/08/23 07:36:36;;;;;;;14.80;11.13;;;;;;;23.86;70.42;93774.13;5032476;28;20049;-91
2023/08/23 07:39:01;;;;;;;26.08;11.77;;;;;;;23.78;70.71;93767.81;5014079;28;20045;-92
2023/08/23 07:41:27;;;;;;;23.35;11.55;;;;;;;23.76;69.88;93762.09;5040202;28;20419;-91
2023/08/23 07:43:52;;;;;;;51.85;14.82;;;;;;;23.87;69.57;93770.81;5032290;28;20122;-93
2023/08/23 07:46:18;;;;;;;54.10;15.07;;;;;;;23.86;69.53;93768.59;5028419;28;20037;-92
2023/08/23 07:48:43;;;;;;;66.82;17.17;;;;;;;23.95;69.15;93770.16;4998472;28;20041;-92
2023/08/23 07:51:09;;;;;;;202.90;34.35;;;;;;;24.06;68.61;93764.34;5021805;28;20049;-91
2023/08/23 07:53:35;;;;;;;104.78;25.92;;;;;;;24.10;68.29;93759.25;5022050;28;20040;-90
2023/08/23 07:56:01;;;;;;;90.95;25.77;;;;;;;24.21;67.86;93754.19;5054617;28;20145;-93
2023/08/23 07:58:30;;;;;;;104.00;27.25;;;;;;;24.24;67.72;93753.16;5048315;28;20459;-92
2023/08/23 08:00:56;;;;;;;121.40;31.65;;;;;;;24.35;67.01;93756.88;5060111;28;20044;-92
2023/08/23 08:03:22;;;;;;;109.18;36.15;;;;;;;24.33;66.94;93749.13;5040802;28;20085;-91
2023/08/23 08:05:48;;;;;;;122.53;44.35;;;;;;;24.35;66.87;93752.09;5056910;28;20443;-90
2023/08/23 08:08:14;;;;;;;78.43;35.88;;;;;;;24.37;66.25;93757.09;5035761;28;20039;-92
2023/08/23 08:10:39;;;;;;;78.05;33.08;;;;;;;24.41;66.30;93761.00;5044285;28;20040;-91
2023/08/23 08:13:05;;;;;;;63.58;27.90;;;;;;;24.48;65.92;93746.47;5055367;28;20059;-91
2023/08/23 08:15:31;;;;;;;54.30;26.23;;;;;;;24.62;65.72;93743.63;5049178;28;20089;-91
2023/08/23 08:17:57;;;;;;;50.50;27.80;;;;;;;24.56;65.77;93746.53;5053146;28;20060;-90
2023/08/23 08:20:24;;;;;;;45.33;22.33;;;;;;;24.53;65.46;93736.56;5040714;28;20075;-92
2023/08/23 08:22:50;;;;;;;38.53;21.88;;;;;;;24.50;65.17;93740.41;5049476;28;20044;-92
2023/08/23 08:25:18;;;;;;;45.85;20.02;;;;;;;24.49;64.93;93739.66;5039797;28;20130;-92
2023/08/23 08:27:43;;;;;;;44.22;20.17;;;;;;;24.62;64.91;93747.13;5054786;28;20040;-92
2023/08/23 08:30:09;;;;;;;30.85;16.85;;;;;;;24.67;64.25;93743.47;5058125;28;20133;-92
2023/08/23 08:32:35;;;;;;;31.80;15.48;;;;;;;24.63;64.60;93753.41;5043116;28;20063;-91
2023/08/23 08:35:00;;;;;;;29.45;17.15;;;;;;;24.65;64.41;93759.84;5056885;28;20114;-92
2023/08/23 08:37:26;;;;;;;33.90;16.88;;;;;;;24.62;64.51;93760.19;5034239;28;20052;-90
2023/08/23 08:39:52;;;;;;;36.92;19.67;;;;;;;24.58;64.72;93752.25;5036018;28;20859;-92
2023/08/23 08:42:17;;;;;;;49.25;27.88;;;;;;;24.76;64.50;93758.81;5043384;28;20090;-89
2023/08/23 08:44:44;;;;;;;41.33;21.80;;;;;;;24.65;64.61;93757.09;5038883;28;20442;-90
2023/08/23 08:47:09;;;;;;;39.97;21.15;;;;;;;24.66;64.36;93750.28;5035251;28;20037;-90
2023/08/23 08:49:35;;;;;;;35.42;19.55;;;;;;;24.56;64.67;93755.56;5044053;28;20036;-90
2023/08/23 08:52:04;;;;;;;36.55;22.27;;;;;;;24.53;64.84;93758.66;5030539;28;20044;-90
2023/08/23 08:54:34;;;;;;;34.38;20.67;;;;;;;24.55;65.23;93765.13;5003677;28;20074;-91
2023/08/23 08:57:00;;;;;;;54.95;25.75;;;;;;;24.66;65.16;93749.53;5019824;28;20053;-91
2023/08/23 08:59:25;;;;;;;48.85;24.42;;;;;;;24.56;65.38;93758.31;5024234;28;20072;-93
2023/08/23 09:01:53;;;;;;;66.43;28.88;;;;;;;24.59;65.34;93754.47;5027898;28;20045;-93
2023/08/23 09:04:18;;;;;;;94.03;34.95;;;;;;;24.59;64.93;93751.72;5029442;28;20048;-91
2023/08/23 09:06:45;;;;;;;66.38;30.85;;;;;;;24.65;65.27;93756.34;5016414;28;20041;-94
2023/08/23 09:09:11;;;;;;;56.70;30.00;;;;;;;24.64;65.51;93758.38;5012707;28;20040;-93
2023/08/23 09:11:36;;;;;;;66.85;34.92;;;;;;;24.71;65.26;93756.94;5029725;28;20128;-90
2023/08/23 09:14:14;;;;;;;57.85;30.17;;;;;;;24.66;64.57;93755.06;5015481;28;20045;-91
2023/08/23 09:16:40;;;;;;;76.47;41.25;;;;;;;24.76;64.85;93761.56;5027454;28;20048;-91
2023/08/23 09:19:09;;;;;;;81.07;39.38;;;;;;;24.66;64.71;93755.81;5002495;28;20033;-91
2023/08/23 09:21:34;;;;;;;100.70;50.38;;;;;;;24.67;64.91;93762.09;4998390;28;20056;-92
2023/08/23 09:24:06;;;;;;;99.43;52.10;;;;;;;24.71;64.60;93760.44;5001305;28;20041;-92
2023/08/23 09:26:34;;;;;;;104.43;46.60;;;;;;;24.74;64.68;93761.38;5023328;28;20041;-94
2023/08/23 09:29:01;;;;;;;96.75;50.00;;;;;;;24.77;64.02;93757.50;4996623;28;20041;-93
2023/08/23 09:31:27;;;;;;;97.55;46.25;;;;;;;24.83;63.82;93766.41;5011716;28;20044;-92
2023/08/23 09:33:53;;;;;;;87.50;43.80;;;;;;;24.83;63.74;93764.38;5012547;28;20037;-92
2023/08/23 09:36:28;;;;;;;91.80;47.78;;;;;;;24.81;64.58;93774.50;5007413;28;20056;-92
2023/08/23 09:38:55;;;;;;;101.93;58.33;;;;;;;24.86;64.30;93770.84;5013076;28;20088;-93
2023/08/23 09:41:22;;;;;;;110.38;58.47;;;;;;;24.86;64.27;93773.63;5015318;28;20473;-91
2023/08/23 09:43:48;;;;;;;163.38;62.53;;;;;;;24.90;63.97;93771.97;5029591;28;20069;-92
2023/08/23 09:46:14;;;;;;;122.90;56.70;;;;;;;24.94;63.22;93775.16;4996588;28;20400;-92
2023/08/23 09:48:39;;;;;;;105.75;55.10;;;;;;;24.97;63.64;93776.09;5016829;28;20053;-93
2023/08/23 09:51:07;;;;;;;130.85;55.20;;;;;;;25.02;63.22;93768.94;5004607;28;20041;-93
2023/08/23 09:53:33;;;;;;;107.25;51.47;;;;;;;25.03;63.50;93771.16;5014096;28;20042;-91
2023/08/23 09:56:01;;;;;;;116.05;54.63;;;;;;;25.04;63.25;93780.94;5043255;28;20037;-91
2023/08/23 09:58:26;;;;;;;168.30;67.43;;;;;;;25.08;63.97;93775.03;5012350;28;20057;-91
2023/08/23 10:00:52;;;;;;;171.35;69.43;;;;;;;25.08;63.48;93773.03;5006980;28;20049;-93
2023/08/23 10:03:18;;;;;;;179.73;74.72;;;;;;;25.08;63.71;93773.03;5010378;28;20118;-90
2023/08/23 10:05:44;;;;;;;167.68;70.65;;;;;;;25.11;63.49;93768.44;5031149;28;20390;-90
2023/08/23 10:08:09;;;;;;;148.70;68.63;;;;;;;25.08;63.60;93775.03;5038241;28;20076;-90
2023/08/23 10:10:35;;;;;;;128.43;63.17;;;;;;;25.08;63.68;93766.75;5013138;28;20511;-90
2023/08/23 10:13:04;;;;;;;135.57;61.15;;;;;;;25.09;63.67;93771.00;5008219;28;20508;-90
2023/08/23 10:15:34;;;;;;;99.30;52.45;;;;;;;25.13;63.46;93763.06;5023886;28;20029;-90
2023/08/23 10:18:00;;;;;;;;;;;;;;;25.11;63.53;93760.13;5027468;28;20103;-91
2023/08/23 10:20:26;;;;;;;97.80;47.50;;;;;;;25.12;62.48;93759.56;5012781;28;19952;-91
2023/08/23 10:22:57;;;;;;;109.65;68.53;;;;;;;25.09;63.50;93755.13;4986897;28;20056;-92
2023/08/23 10:25:23;;;;;;;85.47;48.50;;;;;;;25.15;62.04;93749.41;5006395;28;20050;-92
2023/08/23 10:27:54;;;;;;;89.68;46.45;;;;;;;25.17;62.27;93746.84;5001024;28;20066;-90
2023/08/23 10:30:24;;;;;;;75.18;43.33;;;;;;;25.14;63.01;93740.38;5041954;28;20125;-91
2023/08/23 10:32:49;;;;;;;95.10;53.97;;;;;;;25.16;63.18;93737.81;5009798;28;20064;-91
2023/08/23 10:35:26;;;;;;;80.75;41.95;;;;;;;25.15;62.96;93743.88;5023784;28;20034;-90
2023/08/23 10:37:53;;;;;;;72.72;38.70;;;;;;;25.19;62.22;93725.66;4983408;28;20037;-90
2023/08/23 10:40:19;;;;;;;68.13;38.55;;;;;;;25.20;62.35;93740.97;5041494;28;20046;-91
2023/08/23 10:42:45;;;;;;;65.18;38.38;;;;;;;25.21;62.40;93736.91;5026250;28;20037;-90
2023/08/23 10:45:11;;;;;;;65.50;36.75;;;;;;;25.23;62.46;93742.66;5039765;28;20055;-91
2023/08/23 10:47:37;;;;;;;61.53;34.53;;;;;;;25.25;61.82;93737.31;5013026;28;20037;-91
2023/08/23 10:50:03;;;;;;;67.50;34.78;;;;;;;25.25;62.18;93729.00;5040589;28;20133;-90
2023/08/23 10:52:29;;;;;;;59.08;39.25;;;;;;;25.32;62.25;93732.34;5024658;28;20068;-91
2023/08/23 10:54:55;;;;;;;55.83;34.40;;;;;;;25.29;62.05;93734.19;5024443;28;20104;-90
2023/08/23 10:57:21;;;;;;;53.78;34.38;;;;;;;25.27;62.41;93731.22;5029037;28;20034;-91
2023/08/23 10:59:46;;;;;;;71.38;45.63;;;;;;;25.35;61.48;93734.72;5020770;28;20042;-91
2023/08/23 11:02:12;;;;;;;86.63;50.88;;;;;;;25.37;62.00;93732.16;5006275;28;20034;-91
2023/08/23 11:04:37;;;;;;;189.93;80.53;;;;;;;25.41;61.36;93734.56;5011747;28;20044;-93
2023/08/23 11:07:03;;;;;;;157.07;78.18;;;;;;;25.38;61.66;93727.38;5035075;28;20069;-92
2023/08/23 11:09:28;;;;;;;155.07;67.15;;;;;;;25.40;61.78;93733.84;5049767;28;20032;-93
2023/08/23 11:11:54;;;;;;;167.57;72.47;;;;;;;25.40;61.38;93733.84;5068375;28;20060;-93
2023/08/23 11:14:19;;;;;;;169.68;82.70;;;;;;;25.48;61.63;93731.84;5059895;28;20063;-91
2023/08/23 11:16:45;;;;;;;193.57;89.22;;;;;;;25.48;61.46;93733.88;5044864;28;20051;-90
2023/08/23 11:19:11;;;;;;;182.55;94.15;;;;;;;25.48;61.76;93731.09;5051122;28;20119;-90
2023/08/23 11:21:37;;;;;;;189.70;94.68;;;;;;;25.51;61.83;93730.75;5044178;28;20033;-91
2023/08/23 11:24:05;;;;;;;180.20;90.95;;;;;;;25.50;61.79;93740.31;5051990;28;20032;-90
2023/08/23 11:26:34;;;;;;;246.77;88.65;;;;;;;25.54;61.49;93737.22;5061709;28;20072;-92
2023/08/23 11:29:00;;;;;;;188.93;90.40;;;;;;;25.50;62.00;93734.78;5057678;28;20041;-91
2023/08/23 11:31:26;;;;;;;187.32;86.10;;;;;;;25.57;61.76;93733.31;5034962;28;20369;-89
2023/08/23 11:33:52;;;;;;;195.50;86.45;;;;;;;25.54;61.99;93729.63;5067473;28;20044;-91
2023/08/23 11:36:18;;;;;;;203.43;88.18;;;;;;;25.60;61.76;93734.97;5040771;28;20448;-92
2023/08/23 11:38:46;;;;;;;148.40;74.32;;;;;;;25.54;61.39;93726.13;5064955;28;20055;-92